UAL137 PGUM-RJGG
Flight info
| Callsign | UAL137 |
|---|---|
| Flight time | N/A |
| Altitude | 36000 |
| Route | RICHH A597 ASEDA/N0458F380 A597 BUBDO Y47 KEC Y415 NATCH Y755 CARDS |
| Aircraft | B38M/M-SDE1FGHILORVWXY/HB1 |
Departure
| Time | N/A |
|---|---|
| Airport | Antonio B. Won Pat International Airport (PGUM) |
Arrival
| Time | 2026-05-04 17:59 |
|---|---|
| Airport | Chubu Centrair International Airport (RJGG) |
| Time | Latitude | Longitude | Altitude | Speed | Heading |
|---|---|---|---|---|---|
| 2026-05-04 15:57 | 21.79361 | 140.32136 | 36059 ft | 452 kts | 340° |
| 2026-05-04 15:57 | 21.82355 | 140.31078 | 36066 ft | 452 kts | 340° |
| 2026-05-04 15:58 | 21.88339 | 140.28963 | 36064 ft | 452 kts | 340° |
| 2026-05-04 15:58 | 21.94314 | 140.26850 | 36061 ft | 452 kts | 340° |
| 2026-05-04 15:59 | 22.00260 | 140.24745 | 36060 ft | 452 kts | 340° |
| 2026-05-04 15:59 | 22.06240 | 140.22625 | 36064 ft | 452 kts | 340° |
| 2026-05-04 16:00 | 22.12213 | 140.20507 | 36060 ft | 451 kts | 340° |
| 2026-05-04 16:00 | 22.18146 | 140.18401 | 36067 ft | 452 kts | 340° |
| 2026-05-04 16:01 | 22.24131 | 140.16274 | 36063 ft | 452 kts | 340° |
| 2026-05-04 16:01 | 22.30117 | 140.14145 | 36070 ft | 452 kts | 340° |
| 2026-05-04 16:02 | 22.36068 | 140.12027 | 36066 ft | 452 kts | 340° |
| 2026-05-04 16:03 | 22.45024 | 140.08835 | 36066 ft | 452 kts | 340° |
| 2026-05-04 16:03 | 22.50970 | 140.06714 | 36066 ft | 452 kts | 340° |
| 2026-05-04 16:04 | 22.56951 | 140.04578 | 36068 ft | 452 kts | 340° |
| 2026-05-04 16:04 | 22.65915 | 140.01373 | 36069 ft | 452 kts | 340° |
| 2026-05-04 16:05 | 22.71853 | 139.99248 | 36067 ft | 452 kts | 340° |
| 2026-05-04 16:06 | 22.80825 | 139.96033 | 36066 ft | 451 kts | 339° |
| 2026-05-04 16:07 | 22.92724 | 139.91762 | 36069 ft | 452 kts | 339° |
| 2026-05-04 16:08 | 23.04639 | 139.87478 | 36066 ft | 452 kts | 339° |
| 2026-05-04 16:09 | 23.19574 | 139.82096 | 36073 ft | 452 kts | 339° |
| 2026-05-04 16:10 | 23.31478 | 139.77798 | 36067 ft | 452 kts | 339° |
| 2026-05-04 16:11 | 23.43378 | 139.73493 | 36068 ft | 451 kts | 339° |
| 2026-05-04 16:12 | 23.61245 | 139.67013 | 36075 ft | 451 kts | 339° |
| 2026-05-04 16:13 | 23.73108 | 139.62701 | 36067 ft | 450 kts | 339° |
| 2026-05-04 16:14 | 23.84996 | 139.58371 | 36069 ft | 450 kts | 339° |
| 2026-05-04 16:16 | 23.99822 | 139.52960 | 36067 ft | 450 kts | 339° |
| 2026-05-04 16:17 | 24.14652 | 139.47534 | 36064 ft | 451 kts | 339° |
| 2026-05-04 16:18 | 24.26576 | 139.43161 | 36065 ft | 451 kts | 339° |
| 2026-05-04 16:19 | 24.41453 | 139.37693 | 36064 ft | 452 kts | 339° |
| 2026-05-04 16:20 | 24.56332 | 139.32211 | 36061 ft | 452 kts | 339° |
| 2026-05-04 16:22 | 24.71220 | 139.26713 | 36065 ft | 452 kts | 339° |
| 2026-05-04 16:23 | 24.89096 | 139.20093 | 36063 ft | 452 kts | 339° |
| 2026-05-04 16:25 | 25.06979 | 139.13489 | 36064 ft | 452 kts | 339° |
| 2026-05-04 16:26 | 25.27849 | 139.05818 | 36067 ft | 452 kts | 339° |
| 2026-05-04 16:28 | 25.42730 | 139.00331 | 36067 ft | 451 kts | 338° |
| 2026-05-04 16:29 | 25.63587 | 138.92616 | 36072 ft | 451 kts | 338° |
| 2026-05-04 16:31 | 25.78444 | 138.87103 | 36062 ft | 452 kts | 338° |
| 2026-05-04 16:32 | 25.96309 | 138.80455 | 36074 ft | 452 kts | 337° |
| 2026-05-04 16:33 | 26.07246 | 138.76374 | 36067 ft | 453 kts | 337° |
| 2026-05-04 16:34 | 26.16203 | 138.73026 | 36084 ft | 453 kts | 337° |
| 2026-05-04 16:35 | 26.34107 | 138.66318 | 36066 ft | 453 kts | 337° |
| 2026-05-04 16:36 | 26.43075 | 138.62949 | 36071 ft | 454 kts | 336° |
| 2026-05-04 16:37 | 26.52069 | 138.59565 | 36070 ft | 454 kts | 336° |
| 2026-05-04 16:38 | 26.64030 | 138.55057 | 36074 ft | 454 kts | 336° |
| 2026-05-04 16:39 | 26.78983 | 138.49406 | 36072 ft | 454 kts | 336° |
| 2026-05-04 16:40 | 26.90976 | 138.44862 | 36075 ft | 454 kts | 336° |
| 2026-05-04 16:41 | 27.05902 | 138.39194 | 36078 ft | 453 kts | 335° |
| 2026-05-04 16:43 | 27.20804 | 138.33518 | 36079 ft | 453 kts | 335° |
| 2026-05-04 16:43 | 27.29773 | 138.30095 | 36081 ft | 453 kts | 335° |
| 2026-05-04 16:45 | 27.47641 | 138.23256 | 36080 ft | 453 kts | 335° |
| 2026-05-04 16:46 | 27.62580 | 138.17520 | 36085 ft | 454 kts | 334° |
| 2026-05-04 16:47 | 27.74556 | 138.12911 | 36086 ft | 454 kts | 334° |
| 2026-05-04 16:48 | 27.86484 | 138.08309 | 36092 ft | 454 kts | 334° |
| 2026-05-04 16:49 | 27.98465 | 138.03676 | 36099 ft | 455 kts | 334° |
| 2026-05-04 16:50 | 28.10402 | 137.99049 | 36094 ft | 455 kts | 333° |
| 2026-05-04 16:51 | 28.19397 | 137.95555 | 36096 ft | 455 kts | 333° |
| 2026-05-04 16:52 | 28.31343 | 137.90905 | 36102 ft | 455 kts | 333° |
| 2026-05-04 16:53 | 28.40335 | 137.87398 | 36100 ft | 455 kts | 333° |
| 2026-05-04 16:54 | 28.52331 | 137.82709 | 36099 ft | 455 kts | 333° |
| 2026-05-04 16:55 | 28.70262 | 137.75679 | 36103 ft | 455 kts | 332° |
| 2026-05-04 16:56 | 28.85187 | 137.69808 | 36105 ft | 455 kts | 332° |
| 2026-05-04 16:57 | 28.94164 | 137.66269 | 36110 ft | 455 kts | 332° |
| 2026-05-04 16:58 | 29.06081 | 137.61560 | 36108 ft | 455 kts | 332° |
| 2026-05-04 17:00 | 29.23988 | 137.54462 | 36111 ft | 454 kts | 332° |
| 2026-05-04 17:01 | 29.38896 | 137.48533 | 36117 ft | 454 kts | 331° |
| 2026-05-04 17:02 | 29.50849 | 137.43766 | 36113 ft | 454 kts | 331° |
| 2026-05-04 17:03 | 29.59782 | 137.40197 | 36114 ft | 455 kts | 331° |
| 2026-05-04 17:03 | 29.68762 | 137.36601 | 36124 ft | 455 kts | 331° |
| 2026-05-04 17:04 | 29.80692 | 137.31815 | 36126 ft | 455 kts | 330° |
| 2026-05-04 17:05 | 29.92671 | 137.26996 | 36130 ft | 455 kts | 330° |
| 2026-05-04 17:06 | 30.01605 | 137.23391 | 36160 ft | 455 kts | 330° |
| 2026-05-04 17:07 | 30.09566 | 137.20176 | 36133 ft | 454 kts | 330° |
| 2026-05-04 17:07 | 30.16543 | 137.17354 | 36129 ft | 454 kts | 330° |
| 2026-05-04 17:08 | 30.25447 | 137.13748 | 36123 ft | 452 kts | 330° |
| 2026-05-04 17:09 | 30.31364 | 137.11347 | 36129 ft | 453 kts | 330° |
| 2026-05-04 17:09 | 30.37314 | 137.08930 | 36146 ft | 453 kts | 329° |
| 2026-05-04 17:10 | 30.52082 | 137.02917 | 36118 ft | 450 kts | 329° |
| 2026-05-04 17:11 | 30.58006 | 137.00501 | 36119 ft | 450 kts | 329° |
| 2026-05-04 17:12 | 30.66850 | 136.96885 | 36114 ft | 450 kts | 329° |
| 2026-05-04 17:13 | 30.81580 | 136.90849 | 36118 ft | 448 kts | 329° |
| 2026-05-04 17:14 | 30.93330 | 136.86020 | 36121 ft | 448 kts | 328° |
| 2026-05-04 17:15 | 31.02149 | 136.82387 | 36113 ft | 448 kts | 328° |
| 2026-05-04 17:16 | 31.13876 | 136.77545 | 36117 ft | 447 kts | 328° |
| 2026-05-04 17:17 | 31.25620 | 136.72684 | 36158 ft | 447 kts | 327° |
| 2026-05-04 17:18 | 31.37329 | 136.67825 | 36109 ft | 447 kts | 327° |
| 2026-05-04 17:19 | 31.49035 | 136.62953 | 36108 ft | 448 kts | 327° |
| 2026-05-04 17:20 | 31.60805 | 136.58041 | 36141 ft | 448 kts | 327° |
| 2026-05-04 17:20 | 31.69597 | 136.54363 | 36106 ft | 449 kts | 327° |
| 2026-05-04 17:21 | 31.81380 | 136.49423 | 36108 ft | 450 kts | 326° |
| 2026-05-04 17:22 | 31.87267 | 136.46950 | 36110 ft | 450 kts | 326° |
| 2026-05-04 17:23 | 31.98045 | 136.42413 | 36103 ft | 451 kts | 326° |
| 2026-05-04 17:24 | 32.06943 | 136.38659 | 36103 ft | 452 kts | 326° |
| 2026-05-04 17:25 | 32.18746 | 136.33667 | 36105 ft | 453 kts | 326° |
| 2026-05-04 17:26 | 32.30601 | 136.28640 | 36100 ft | 453 kts | 326° |
| 2026-05-04 17:27 | 32.45398 | 136.22341 | 36138 ft | 453 kts | 325° |
| 2026-05-04 17:28 | 32.57266 | 136.17275 | 36088 ft | 453 kts | 325° |
| 2026-05-04 17:29 | 32.75015 | 136.09669 | 36095 ft | 452 kts | 325° |
| 2026-05-04 17:31 | 32.89749 | 136.03329 | 36098 ft | 451 kts | 325° |
| 2026-05-04 17:31 | 32.98624 | 135.99497 | 34095 ft | 461 kts | 325° |
| 2026-05-04 17:32 | 33.04649 | 135.96897 | 32806 ft | 455 kts | 325° |
| 2026-05-04 17:33 | 33.13359 | 135.93124 | 31547 ft | 436 kts | 326° |
| 2026-05-04 17:33 | 33.16172 | 135.91904 | 30980 ft | 435 kts | 326° |
| 2026-05-04 17:34 | 33.24653 | 135.88220 | 29411 ft | 427 kts | 326° |
| 2026-05-04 17:34 | 33.27427 | 135.87013 | 28910 ft | 425 kts | 326° |
| 2026-05-04 17:35 | 33.35656 | 135.83430 | 27555 ft | 412 kts | 326° |
| 2026-05-04 17:35 | 33.40962 | 135.81117 | 26698 ft | 405 kts | 327° |
| 2026-05-04 17:35 | 33.43764 | 135.80340 | 26194 ft | 428 kts | 343° |
| 2026-05-04 17:36 | 33.46819 | 135.80583 | 25748 ft | 453 kts | 3° |
| 2026-05-04 17:36 | 33.49815 | 135.81979 | 25383 ft | 468 kts | 19° |
| 2026-05-04 17:36 | 33.52712 | 135.83655 | 24955 ft | 461 kts | 15° |
| 2026-05-04 17:36 | 33.55636 | 135.85228 | 24443 ft | 460 kts | 14° |
| 2026-05-04 17:37 | 33.58555 | 135.86788 | 23988 ft | 459 kts | 14° |
| 2026-05-04 17:37 | 33.61431 | 135.88329 | 23526 ft | 456 kts | 14° |
| 2026-05-04 17:37 | 33.64326 | 135.89882 | 23030 ft | 454 kts | 15° |
| 2026-05-04 17:37 | 33.67210 | 135.91417 | 22483 ft | 450 kts | 15° |
| 2026-05-04 17:38 | 33.70062 | 135.92946 | 22081 ft | 446 kts | 16° |
| 2026-05-04 17:38 | 33.72881 | 135.94458 | 21623 ft | 442 kts | 15° |
| 2026-05-04 17:38 | 33.75679 | 135.95953 | 21177 ft | 438 kts | 16° |
| 2026-05-04 17:38 | 33.78407 | 135.97408 | 20693 ft | 429 kts | 16° |
| 2026-05-04 17:39 | 33.83721 | 136.00269 | 19991 ft | 410 kts | 17° |
| 2026-05-04 17:39 | 33.86309 | 136.01660 | 19564 ft | 402 kts | 17° |
| 2026-05-04 17:39 | 33.88846 | 136.03025 | 19182 ft | 395 kts | 17° |
| 2026-05-04 17:40 | 33.91306 | 136.04351 | 18784 ft | 389 kts | 17° |
| 2026-05-04 17:40 | 33.93759 | 136.05670 | 18404 ft | 382 kts | 18° |
| 2026-05-04 17:40 | 33.96171 | 136.06969 | 17975 ft | 376 kts | 18° |
| 2026-05-04 17:40 | 33.98531 | 136.08242 | 17582 ft | 370 kts | 18° |
| 2026-05-04 17:41 | 34.00868 | 136.09503 | 17198 ft | 363 kts | 17° |
| 2026-05-04 17:41 | 34.03157 | 136.10738 | 16832 ft | 356 kts | 18° |
| 2026-05-04 17:41 | 34.05372 | 136.11934 | 16490 ft | 350 kts | 18° |
| 2026-05-04 17:41 | 34.07582 | 136.13129 | 16141 ft | 345 kts | 18° |
| 2026-05-04 17:42 | 34.09770 | 136.14314 | 15769 ft | 341 kts | 18° |
| 2026-05-04 17:42 | 34.11916 | 136.15473 | 15436 ft | 338 kts | 18° |
| 2026-05-04 17:42 | 34.14055 | 136.16633 | 15105 ft | 335 kts | 18° |
| 2026-05-04 17:42 | 34.16156 | 136.17768 | 14787 ft | 333 kts | 17° |
| 2026-05-04 17:43 | 34.18270 | 136.18912 | 14456 ft | 331 kts | 18° |
| 2026-05-04 17:43 | 34.20273 | 136.20307 | 14073 ft | 339 kts | 31° |
| 2026-05-04 17:43 | 34.22149 | 136.22049 | 13677 ft | 339 kts | 32° |
| 2026-05-04 17:43 | 34.24022 | 136.23774 | 13305 ft | 338 kts | 31° |
| 2026-05-04 17:44 | 34.25892 | 136.25490 | 12994 ft | 336 kts | 31° |
| 2026-05-04 17:44 | 34.27762 | 136.27194 | 12610 ft | 336 kts | 31° |
| 2026-05-04 17:44 | 34.29600 | 136.28870 | 12215 ft | 333 kts | 31° |
| 2026-05-04 17:44 | 34.31437 | 136.30546 | 11878 ft | 327 kts | 31° |
| 2026-05-04 17:45 | 34.33244 | 136.32195 | 11531 ft | 322 kts | 31° |
| 2026-05-04 17:45 | 34.35026 | 136.33825 | 11105 ft | 320 kts | 31° |
| 2026-05-04 17:45 | 34.36808 | 136.35453 | 10581 ft | 321 kts | 31° |
| 2026-05-04 17:45 | 34.38578 | 136.37074 | 10271 ft | 312 kts | 30° |
| 2026-05-04 17:46 | 34.40244 | 136.38603 | 10151 ft | 291 kts | 30° |
| 2026-05-04 17:46 | 34.41732 | 136.40182 | 10006 ft | 283 kts | 43° |
| 2026-05-04 17:46 | 34.42693 | 136.42300 | 9192 ft | 310 kts | 80° |
| 2026-05-04 17:46 | 34.42607 | 136.44983 | 8490 ft | 326 kts | 88° |
| 2026-05-04 17:47 | 34.42946 | 136.47601 | 8277 ft | 306 kts | 64° |
| 2026-05-04 17:47 | 34.43789 | 136.49866 | 8244 ft | 285 kts | 57° |
| 2026-05-04 17:47 | 34.44650 | 136.51970 | 8205 ft | 272 kts | 57° |
| 2026-05-04 17:47 | 34.45489 | 136.54015 | 8057 ft | 269 kts | 57° |
| 2026-05-04 17:48 | 34.46307 | 136.56008 | 7822 ft | 266 kts | 57° |
| 2026-05-04 17:48 | 34.47135 | 136.58025 | 7593 ft | 263 kts | 56° |
| 2026-05-04 17:48 | 34.47936 | 136.59976 | 7364 ft | 260 kts | 56° |
| 2026-05-04 17:48 | 34.48735 | 136.61923 | 7124 ft | 256 kts | 56° |
| 2026-05-04 17:49 | 34.49526 | 136.63851 | 6898 ft | 253 kts | 56° |
| 2026-05-04 17:49 | 34.50306 | 136.65755 | 6608 ft | 253 kts | 56° |
| 2026-05-04 17:49 | 34.51088 | 136.67664 | 6315 ft | 253 kts | 56° |
| 2026-05-04 17:49 | 34.51870 | 136.69575 | 6002 ft | 253 kts | 56° |
| 2026-05-04 17:50 | 34.52652 | 136.71487 | 5691 ft | 252 kts | 56° |
| 2026-05-04 17:50 | 34.53418 | 136.73361 | 5450 ft | 249 kts | 56° |
| 2026-05-04 17:50 | 34.54182 | 136.75230 | 5231 ft | 245 kts | 56° |
| 2026-05-04 17:50 | 34.54931 | 136.77066 | 5032 ft | 240 kts | 56° |
| 2026-05-04 17:51 | 34.55663 | 136.78858 | 4900 ft | 233 kts | 55° |
| 2026-05-04 17:51 | 34.56368 | 136.80587 | 4795 ft | 223 kts | 54° |
| 2026-05-04 17:51 | 34.57041 | 136.82240 | 4674 ft | 214 kts | 54° |
| 2026-05-04 17:51 | 34.57691 | 136.83835 | 4526 ft | 207 kts | 54° |
| 2026-05-04 17:52 | 34.58376 | 136.85320 | 4355 ft | 192 kts | 38° |
| 2026-05-04 17:52 | 34.59408 | 136.86098 | 4186 ft | 170 kts | 5° |
| 2026-05-04 17:52 | 34.60518 | 136.86132 | 4116 ft | 152 kts | 352° |
| 2026-05-04 17:52 | 34.61554 | 136.86036 | 3997 ft | 147 kts | 351° |
| 2026-05-04 17:53 | 34.62567 | 136.85897 | 3889 ft | 146 kts | 349° |
| 2026-05-04 17:53 | 34.63569 | 136.85728 | 3811 ft | 145 kts | 348° |
| 2026-05-04 17:53 | 34.64574 | 136.85534 | 3712 ft | 147 kts | 348° |
| 2026-05-04 17:53 | 34.65582 | 136.85325 | 3612 ft | 147 kts | 347° |
| 2026-05-04 17:54 | 34.66582 | 136.85107 | 3521 ft | 142 kts | 347° |
| 2026-05-04 17:54 | 34.67493 | 136.84904 | 3444 ft | 127 kts | 347° |
| 2026-05-04 17:54 | 34.68340 | 136.84709 | 3349 ft | 124 kts | 347° |
| 2026-05-04 17:54 | 34.69184 | 136.84514 | 3241 ft | 123 kts | 347° |
| 2026-05-04 17:55 | 34.70026 | 136.84316 | 3090 ft | 123 kts | 347° |
| 2026-05-04 17:55 | 34.70867 | 136.84118 | 2924 ft | 123 kts | 346° |
| 2026-05-04 17:55 | 34.71703 | 136.83921 | 2765 ft | 123 kts | 347° |
| 2026-05-04 17:55 | 34.72547 | 136.83734 | 2534 ft | 124 kts | 347° |
| 2026-05-04 17:56 | 34.73403 | 136.83557 | 2336 ft | 124 kts | 348° |
| 2026-05-04 17:56 | 34.74248 | 136.83401 | 2180 ft | 124 kts | 348° |
| 2026-05-04 17:56 | 34.75098 | 136.83214 | 2089 ft | 127 kts | 345° |
| 2026-05-04 17:56 | 34.75945 | 136.82961 | 2001 ft | 123 kts | 343° |
| 2026-05-04 17:57 | 34.76782 | 136.82702 | 1794 ft | 126 kts | 343° |
| 2026-05-04 17:57 | 34.77641 | 136.82466 | 1614 ft | 127 kts | 346° |
| 2026-05-04 17:57 | 34.78518 | 136.82276 | 1395 ft | 129 kts | 346° |
| 2026-05-04 17:57 | 34.79419 | 136.82085 | 1156 ft | 133 kts | 346° |
| 2026-05-04 17:58 | 34.80316 | 136.81893 | 940 ft | 132 kts | 346° |
| 2026-05-04 17:58 | 34.81226 | 136.81674 | 677 ft | 135 kts | 343° |
| 2026-05-04 17:58 | 34.82142 | 136.81430 | 485 ft | 134 kts | 343° |
| 2026-05-04 17:58 | 34.83056 | 136.81207 | 307 ft | 134 kts | 343° |
| 2026-05-04 17:59 | 34.83962 | 136.80991 | 147 ft | 131 kts | 343° |
| 2026-05-04 17:59 | 34.84837 | 136.80786 | 33 ft | 119 kts | 342° |
| 2026-05-04 17:59 | 34.85933 | 136.80511 | 28 ft | 46 kts | 348° |
| 2026-05-04 18:00 | 34.86127 | 136.80498 | 29 ft | 10 kts | 6° |
| 2026-05-04 18:00 | 34.86158 | 136.80503 | 30 ft | 8 kts | 11° |
| 2026-05-04 18:00 | 34.86234 | 136.80530 | 30 ft | 13 kts | 22° |
| 2026-05-04 18:00 | 34.86324 | 136.80576 | 30 ft | 15 kts | 45° |
| 2026-05-04 18:01 | 34.86294 | 136.80671 | 30 ft | 16 kts | 170° |
| 2026-05-04 18:01 | 34.86180 | 136.80701 | 30 ft | 18 kts | 168° |
| 2026-05-04 18:01 | 34.86048 | 136.80734 | 30 ft | 21 kts | 168° |
| 2026-05-04 18:02 | 34.85733 | 136.80808 | 30 ft | 25 kts | 168° |
| 2026-05-04 18:02 | 34.85595 | 136.80844 | 30 ft | 15 kts | 164° |
| 2026-05-04 18:02 | 34.85573 | 136.80946 | 30 ft | 15 kts | 79° |
| 2026-05-04 18:02 | 34.85596 | 136.81076 | 30 ft | 17 kts | 78° |
| 2026-05-04 18:03 | 34.85618 | 136.81204 | 30 ft | 8 kts | 79° |
| 2026-05-04 18:03 | 34.85649 | 136.81264 | 30 ft | 10 kts | 22° |
| 2026-05-04 18:03 | 34.85675 | 136.81316 | 30 ft | 8 kts | 83° |
| 2026-05-04 18:03 | 34.85681 | 136.81358 | 30 ft | 3 kts | 79° |
| 2026-05-04 18:04 | 34.85684 | 136.81371 | 30 ft | 0 kts | 78° |